sensor_id;sensor_type;location;lat;lon;timestamp;pressure;altitude;pressure_sealevel;temperature
64960;BMP180;51487;52.266;10.542;2022-07-10T00:01:05;101304.00;;;15.10
64960;BMP180;51487;52.266;10.542;2022-07-10T00:03:31;101301.00;;;15.10
64960;BMP180;51487;52.266;10.542;2022-07-10T00:05:56;101306.00;;;15.00
64960;BMP180;51487;52.266;10.542;2022-07-10T00:08:22;101306.00;;;14.90
64960;BMP180;51487;52.266;10.542;2022-07-10T00:10:48;101306.00;;;15.00
64960;BMP180;51487;52.266;10.542;2022-07-10T00:13:13;101300.00;;;14.90
64960;BMP180;51487;52.266;10.542;2022-07-10T00:15:39;101292.00;;;14.80
64960;BMP180;51487;52.266;10.542;2022-07-10T00:18:04;101293.00;;;15.00
64960;BMP180;51487;52.266;10.542;2022-07-10T00:20:30;101283.00;;;15.20
64960;BMP180;51487;52.266;10.542;2022-07-10T00:22:55;101300.00;;;15.20
64960;BMP180;51487;52.266;10.542;2022-07-10T00:25:21;101304.00;;;15.50
64960;BMP180;51487;52.266;10.542;2022-07-10T00:27:47;101295.00;;;15.70
64960;BMP180;51487;52.266;10.542;2022-07-10T00:30:12;101300.00;;;15.30
64960;BMP180;51487;52.266;10.542;2022-07-10T00:32:39;101292.00;;;15.50
64960;BMP180;51487;52.266;10.542;2022-07-10T00:35:05;101292.00;;;15.80
64960;BMP180;51487;52.266;10.542;2022-07-10T00:37:31;101291.00;;;15.80
64960;BMP180;51487;52.266;10.542;2022-07-10T00:39:57;101293.00;;;16.20
64960;BMP180;51487;52.266;10.542;2022-07-10T00:42:23;101296.00;;;15.40
64960;BMP180;51487;52.266;10.542;2022-07-10T00:44:48;101303.00;;;15.50
64960;BMP180;51487;52.266;10.542;2022-07-10T00:47:14;101292.00;;;15.40
64960;BMP180;51487;52.266;10.542;2022-07-10T00:49:42;101293.00;;;15.40
64960;BMP180;51487;52.266;10.542;2022-07-10T00:52:11;101280.00;;;15.50
64960;BMP180;51487;52.266;10.542;2022-07-10T00:54:40;101289.00;;;15.60
64960;BMP180;51487;52.266;10.542;2022-07-10T00:57:08;101288.00;;;14.50
64960;BMP180;51487;52.266;10.542;2022-07-10T00:59:34;101289.00;;;14.00
64960;BMP180;51487;52.266;10.542;2022-07-10T01:02:04;101288.00;;;13.60
64960;BMP180;51487;52.266;10.542;2022-07-10T01:04:31;101291.00;;;13.20
64960;BMP180;51487;52.266;10.542;2022-07-10T01:06:58;101291.00;;;13.20
64960;BMP180;51487;52.266;10.542;2022-07-10T01:09:24;101284.00;;;13.10
64960;BMP180;51487;52.266;10.542;2022-07-10T01:11:50;101287.00;;;13.10
64960;BMP180;51487;52.266;10.542;2022-07-10T01:14:16;101280.00;;;13.10
64960;BMP180;51487;52.266;10.542;2022-07-10T01:16:42;101282.00;;;13.10
64960;BMP180;51487;52.266;10.542;2022-07-10T01:19:07;101283.00;;;13.10
64960;BMP180;51487;52.266;10.542;2022-07-10T01:21:35;101286.00;;;13.00
64960;BMP180;51487;52.266;10.542;2022-07-10T01:24:06;101282.00;;;13.00
64960;BMP180;51487;52.266;10.542;2022-07-10T01:26:34;101287.00;;;12.40
64960;BMP180;51487;52.266;10.542;2022-07-10T01:29:04;101281.00;;;12.30
64960;BMP180;51487;52.266;10.542;2022-07-10T01:31:31;101274.00;;;12.50
64960;BMP180;51487;52.266;10.542;2022-07-10T01:33:59;101282.00;;;12.30
64960;BMP180;51487;52.266;10.542;2022-07-10T01:36:30;101281.00;;;12.20
64960;BMP180;51487;52.266;10.542;2022-07-10T01:38:57;101291.00;;;12.30
64960;BMP180;51487;52.266;10.542;2022-07-10T01:41:24;101288.00;;;12.40
64960;BMP180;51487;52.266;10.542;2022-07-10T01:43:50;101279.00;;;12.40
64960;BMP180;51487;52.266;10.542;2022-07-10T01:46:16;101269.00;;;12.30
64960;BMP180;51487;52.266;10.542;2022-07-10T01:48:42;101274.00;;;12.30
64960;BMP180;51487;52.266;10.542;2022-07-10T01:51:09;101269.00;;;12.10
64960;BMP180;51487;52.266;10.542;2022-07-10T01:53:36;101263.00;;;12.10
64960;BMP180;51487;52.266;10.542;2022-07-10T01:56:08;101258.00;;;11.90
64960;BMP180;51487;52.266;10.542;2022-07-10T01:58:35;101253.00;;;11.90
64960;BMP180;51487;52.266;10.542;2022-07-10T02:01:02;101257.00;;;12.00
64960;BMP180;51487;52.266;10.542;2022-07-10T02:03:28;101265.00;;;11.80
64960;BMP180;51487;52.266;10.542;2022-07-10T02:06:13;101256.00;;;11.90
64960;BMP180;51487;52.266;10.542;2022-07-10T02:08:39;101256.00;;;11.90
64960;BMP180;51487;52.266;10.542;2022-07-10T02:11:05;101256.00;;;12.10
64960;BMP180;51487;52.266;10.542;2022-07-10T02:13:31;101246.00;;;12.20
64960;BMP180;51487;52.266;10.542;2022-07-10T02:15:57;101246.00;;;12.20
64960;BMP180;51487;52.266;10.542;2022-07-10T02:18:23;101251.00;;;12.20
64960;BMP180;51487;52.266;10.542;2022-07-10T02:20:50;101253.00;;;12.30
64960;BMP180;51487;52.266;10.542;2022-07-10T02:23:16;101245.00;;;12.40
64960;BMP180;51487;52.266;10.542;2022-07-10T02:25:42;101244.00;;;12.50
64960;BMP180;51487;52.266;10.542;2022-07-10T02:28:08;101244.00;;;12.50
64960;BMP180;51487;52.266;10.542;2022-07-10T02:30:34;101242.00;;;12.60
64960;BMP180;51487;52.266;10.542;2022-07-10T02:33:00;101239.00;;;12.50
64960;BMP180;51487;52.266;10.542;2022-07-10T02:35:25;101229.00;;;12.50
64960;BMP180;51487;52.266;10.542;2022-07-10T02:37:51;101226.00;;;12.70
64960;BMP180;51487;52.266;10.542;2022-07-10T02:40:17;101226.00;;;12.60
64960;BMP180;51487;52.266;10.542;2022-07-10T02:42:42;101227.00;;;12.60
64960;BMP180;51487;52.266;10.542;2022-07-10T02:45:08;101222.00;;;12.70
64960;BMP180;51487;52.266;10.542;2022-07-10T02:47:34;101218.00;;;12.70
64960;BMP180;51487;52.266;10.542;2022-07-10T02:50:00;101222.00;;;12.80
64960;BMP180;51487;52.266;10.542;2022-07-10T02:52:26;101214.00;;;12.70
64960;BMP180;51487;52.266;10.542;2022-07-10T02:54:52;101214.00;;;12.70
64960;BMP180;51487;52.266;10.542;2022-07-10T02:57:18;101221.00;;;12.70
64960;BMP180;51487;52.266;10.542;2022-07-10T02:59:43;101226.00;;;12.60
64960;BMP180;51487;52.266;10.542;2022-07-10T03:02:09;101217.00;;;12.70
64960;BMP180;51487;52.266;10.542;2022-07-10T03:04:34;101214.00;;;12.80
64960;BMP180;51487;52.266;10.542;2022-07-10T03:07:00;101210.00;;;12.70
64960;BMP180;51487;52.266;10.542;2022-07-10T03:09:26;101205.00;;;12.70
64960;BMP180;51487;52.266;10.542;2022-07-10T03:11:52;101218.00;;;12.70
64960;BMP180;51487;52.266;10.542;2022-07-10T03:14:18;101210.00;;;12.70
64960;BMP180;51487;52.266;10.542;2022-07-10T03:16:43;101213.00;;;12.70
64960;BMP180;51487;52.266;10.542;2022-07-10T03:19:09;101223.00;;;12.70
64960;BMP180;51487;52.266;10.542;2022-07-10T03:21:35;101213.00;;;12.70
64960;BMP180;51487;52.266;10.542;2022-07-10T03:24:00;101216.00;;;12.80
64960;BMP180;51487;52.266;10.542;2022-07-10T03:26:26;101221.00;;;12.80
64960;BMP180;51487;52.266;10.542;2022-07-10T03:28:54;101217.00;;;12.70
64960;BMP180;51487;52.266;10.542;2022-07-10T03:31:20;101216.00;;;12.70
64960;BMP180;51487;52.266;10.542;2022-07-10T03:33:46;101216.00;;;12.60
64960;BMP180;51487;52.266;10.542;2022-07-10T03:36:11;101212.00;;;12.60
64960;BMP180;51487;52.266;10.542;2022-07-10T03:38:38;101228.00;;;12.60
64960;BMP180;51487;52.266;10.542;2022-07-10T03:41:04;101217.00;;;12.40
64960;BMP180;51487;52.266;10.542;2022-07-10T03:43:30;101224.00;;;12.20
64960;BMP180;51487;52.266;10.542;2022-07-10T03:45:57;101228.00;;;12.00
64960;BMP180;51487;52.266;10.542;2022-07-10T03:48:23;101229.00;;;11.90
64960;BMP180;51487;52.266;10.542;2022-07-10T03:50:51;101231.00;;;12.00
64960;BMP180;51487;52.266;10.542;2022-07-10T03:53:18;101227.00;;;11.80
64960;BMP180;51487;52.266;10.542;2022-07-10T03:55:44;101234.00;;;11.70
64960;BMP180;51487;52.266;10.542;2022-07-10T03:58:10;101233.00;;;11.70
64960;BMP180;51487;52.266;10.542;2022-07-10T04:00:35;101231.00;;;11.90
64960;BMP180;51487;52.266;10.542;2022-07-10T04:03:07;101218.00;;;11.90
64960;BMP180;51487;52.266;10.542;2022-07-10T04:05:33;101227.00;;;12.00
64960;BMP180;51487;52.266;10.542;2022-07-10T04:08:00;101217.00;;;11.70
64960;BMP180;51487;52.266;10.542;2022-07-10T04:10:28;101221.00;;;11.80
64960;BMP180;51487;52.266;10.542;2022-07-10T04:12:55;101218.00;;;12.00
64960;BMP180;51487;52.266;10.542;2022-07-10T04:15:21;101222.00;;;12.10
64960;BMP180;51487;52.266;10.542;2022-07-10T04:17:48;101217.00;;;11.90
64960;BMP180;51487;52.266;10.542;2022-07-10T04:20:14;101209.00;;;12.10
64960;BMP180;51487;52.266;10.542;2022-07-10T04:22:41;101216.00;;;12.10
64960;BMP180;51487;52.266;10.542;2022-07-10T04:25:07;101210.00;;;12.00
64960;BMP180;51487;52.266;10.542;2022-07-10T04:27:33;101202.00;;;12.20
64960;BMP180;51487;52.266;10.542;2022-07-10T04:29:59;101198.00;;;12.20
64960;BMP180;51487;52.266;10.542;2022-07-10T04:32:25;101203.00;;;12.30
64960;BMP180;51487;52.266;10.542;2022-07-10T04:34:53;101196.00;;;12.30
64960;BMP180;51487;52.266;10.542;2022-07-10T04:37:21;101204.00;;;12.30
64960;BMP180;51487;52.266;10.542;2022-07-10T04:39:47;101202.00;;;12.40
64960;BMP180;51487;52.266;10.542;2022-07-10T04:42:12;101200.00;;;12.50
64960;BMP180;51487;52.266;10.542;2022-07-10T04:44:38;101211.00;;;12.30
64960;BMP180;51487;52.266;10.542;2022-07-10T04:47:05;101215.00;;;12.50
64960;BMP180;51487;52.266;10.542;2022-07-10T04:49:31;101206.00;;;12.50
64960;BMP180;51487;52.266;10.542;2022-07-10T04:51:58;101217.00;;;12.40
64960;BMP180;51487;52.266;10.542;2022-07-10T04:54:23;101218.00;;;12.30
64960;BMP180;51487;52.266;10.542;2022-07-10T04:56:49;101221.00;;;12.40
64960;BMP180;51487;52.266;10.542;2022-07-10T04:59:15;101220.00;;;12.50
64960;BMP180;51487;52.266;10.542;2022-07-10T05:01:41;101219.00;;;12.50
64960;BMP180;51487;52.266;10.542;2022-07-10T05:04:06;101216.00;;;12.60
64960;BMP180;51487;52.266;10.542;2022-07-10T05:06:33;101216.00;;;12.60
64960;BMP180;51487;52.266;10.542;2022-07-10T05:08:59;101215.00;;;12.70
64960;BMP180;51487;52.266;10.542;2022-07-10T05:11:25;101215.00;;;12.80
64960;BMP180;51487;52.266;10.542;2022-07-10T05:13:51;101223.00;;;12.90
64960;BMP180;51487;52.266;10.542;2022-07-10T05:16:17;101213.00;;;12.90
64960;BMP180;51487;52.266;10.542;2022-07-10T05:18:43;101212.00;;;12.90
64960;BMP180;51487;52.266;10.542;2022-07-10T05:21:10;101220.00;;;12.90
64960;BMP180;51487;52.266;10.542;2022-07-10T05:23:37;101208.00;;;12.90
64960;BMP180;51487;52.266;10.542;2022-07-10T05:26:04;101212.00;;;12.80
64960;BMP180;51487;52.266;10.542;2022-07-10T05:28:30;101216.00;;;12.80
64960;BMP180;51487;52.266;10.542;2022-07-10T05:30:55;101217.00;;;12.90
64960;BMP180;51487;52.266;10.542;2022-07-10T05:33:21;101225.00;;;12.90
64960;BMP180;51487;52.266;10.542;2022-07-10T05:35:47;101225.00;;;13.00
64960;BMP180;51487;52.266;10.542;2022-07-10T05:38:12;101212.00;;;12.90
64960;BMP180;51487;52.266;10.542;2022-07-10T05:40:38;101209.00;;;13.00
64960;BMP180;51487;52.266;10.542;2022-07-10T05:43:04;101221.00;;;13.10
64960;BMP180;51487;52.266;10.542;2022-07-10T05:45:29;101210.00;;;13.10
64960;BMP180;51487;52.266;10.542;2022-07-10T05:47:55;101212.00;;;13.10
64960;BMP180;51487;52.266;10.542;2022-07-10T05:50:21;101216.00;;;13.20
64960;BMP180;51487;52.266;10.542;2022-07-10T05:52:46;101213.00;;;13.30
64960;BMP180;51487;52.266;10.542;2022-07-10T05:55:12;101217.00;;;13.30
64960;BMP180;51487;52.266;10.542;2022-07-10T05:57:38;101213.00;;;13.20
64960;BMP180;51487;52.266;10.542;2022-07-10T06:00:04;101221.00;;;13.20
64960;BMP180;51487;52.266;10.542;2022-07-10T06:02:31;101211.00;;;13.20
64960;BMP180;51487;52.266;10.542;2022-07-10T06:04:56;101211.00;;;13.40
64960;BMP180;51487;52.266;10.542;2022-07-10T06:07:22;101221.00;;;13.20
64960;BMP180;51487;52.266;10.542;2022-07-10T06:09:48;101217.00;;;13.30
64960;BMP180;51487;52.266;10.542;2022-07-10T06:12:13;101224.00;;;13.30
64960;BMP180;51487;52.266;10.542;2022-07-10T06:14:41;101222.00;;;13.30
64960;BMP180;51487;52.266;10.542;2022-07-10T06:17:07;101218.00;;;13.30
64960;BMP180;51487;52.266;10.542;2022-07-10T06:19:32;101216.00;;;13.40
64960;BMP180;51487;52.266;10.542;2022-07-10T06:21:58;101208.00;;;13.60
64960;BMP180;51487;52.266;10.542;2022-07-10T06:24:42;101213.00;;;13.60
64960;BMP180;51487;52.266;10.542;2022-07-10T06:27:08;101207.00;;;13.50
64960;BMP180;51487;52.266;10.542;2022-07-10T06:29:34;101219.00;;;13.70
64960;BMP180;51487;52.266;10.542;2022-07-10T06:31:59;101212.00;;;13.80
64960;BMP180;51487;52.266;10.542;2022-07-10T06:34:25;101217.00;;;13.90
64960;BMP180;51487;52.266;10.542;2022-07-10T06:36:50;101222.00;;;14.00
64960;BMP180;51487;52.266;10.542;2022-07-10T06:39:16;101222.00;;;14.10
64960;BMP180;51487;52.266;10.542;2022-07-10T06:41:41;101226.00;;;14.00
64960;BMP180;51487;52.266;10.542;2022-07-10T06:44:07;101226.00;;;14.00
64960;BMP180;51487;52.266;10.542;2022-07-10T06:46:33;101220.00;;;14.30
64960;BMP180;51487;52.266;10.542;2022-07-10T06:48:58;101230.00;;;14.30
64960;BMP180;51487;52.266;10.542;2022-07-10T06:51:25;101220.00;;;14.30
64960;BMP180;51487;52.266;10.542;2022-07-10T06:53:51;101216.00;;;14.40
64960;BMP180;51487;52.266;10.542;2022-07-10T06:56:17;101212.00;;;14.40
64960;BMP180;51487;52.266;10.542;2022-07-10T06:58:43;101213.00;;;14.40
64960;BMP180;51487;52.266;10.542;2022-07-10T07:01:08;101208.00;;;14.60
64960;BMP180;51487;52.266;10.542;2022-07-10T07:03:34;101207.00;;;14.40
64960;BMP180;51487;52.266;10.542;2022-07-10T07:05:59;101224.00;;;14.30
64960;BMP180;51487;52.266;10.542;2022-07-10T07:08:25;101220.00;;;14.30
64960;BMP180;51487;52.266;10.542;2022-07-10T07:10:50;101212.00;;;14.60
64960;BMP180;51487;52.266;10.542;2022-07-10T07:13:16;101213.00;;;14.70
64960;BMP180;51487;52.266;10.542;2022-07-10T07:15:42;101204.00;;;14.60
64960;BMP180;51487;52.266;10.542;2022-07-10T07:18:12;101212.00;;;14.50
64960;BMP180;51487;52.266;10.542;2022-07-10T07:20:41;101214.00;;;14.60
64960;BMP180;51487;52.266;10.542;2022-07-10T07:23:26;101208.00;;;14.80
64960;BMP180;51487;52.266;10.542;2022-07-10T07:25:52;101217.00;;;14.80
64960;BMP180;51487;52.266;10.542;2022-07-10T07:28:18;101206.00;;;15.00
64960;BMP180;51487;52.266;10.542;2022-07-10T07:30:46;101207.00;;;15.00
64960;BMP180;51487;52.266;10.542;2022-07-10T07:33:12;101206.00;;;15.10
64960;BMP180;51487;52.266;10.542;2022-07-10T07:35:38;101209.00;;;15.30
64960;BMP180;51487;52.266;10.542;2022-07-10T07:38:05;101212.00;;;15.10
64960;BMP180;51487;52.266;10.542;2022-07-10T07:40:33;101215.00;;;14.70
64960;BMP180;51487;52.266;10.542;2022-07-10T07:42:59;101208.00;;;14.90
64960;BMP180;51487;52.266;10.542;2022-07-10T07:45:26;101200.00;;;15.30
64960;BMP180;51487;52.266;10.542;2022-07-10T07:47:54;101203.00;;;15.20
64960;BMP180;51487;52.266;10.542;2022-07-10T07:50:23;101200.00;;;15.20
64960;BMP180;51487;52.266;10.542;2022-07-10T07:52:51;101218.00;;;15.10
64960;BMP180;51487;52.266;10.542;2022-07-10T07:55:19;101213.00;;;15.40
64960;BMP180;51487;52.266;10.542;2022-07-10T07:57:47;101228.00;;;15.10
64960;BMP180;51487;52.266;10.542;2022-07-10T08:00:15;101196.00;;;15.20
64960;BMP180;51487;52.266;10.542;2022-07-10T08:02:43;101199.00;;;15.60
64960;BMP180;51487;52.266;10.542;2022-07-10T08:05:09;101199.00;;;15.60
64960;BMP180;51487;52.266;10.542;2022-07-10T08:07:38;101208.00;;;15.60
64960;BMP180;51487;52.266;10.542;2022-07-10T08:10:13;101203.00;;;15.20
64960;BMP180;51487;52.266;10.542;2022-07-10T08:12:41;101206.00;;;15.20
64960;BMP180;51487;52.266;10.542;2022-07-10T08:15:14;101208.00;;;14.90
64960;BMP180;51487;52.266;10.542;2022-07-10T08:17:41;101205.00;;;14.70
64960;BMP180;51487;52.266;10.542;2022-07-10T08:20:10;101200.00;;;15.00
64960;BMP180;51487;52.266;10.542;2022-07-10T08:22:37;101196.00;;;15.40
64960;BMP180;51487;52.266;10.542;2022-07-10T08:25:04;101212.00;;;15.50
64960;BMP180;51487;52.266;10.542;2022-07-10T08:27:30;101215.00;;;15.30
64960;BMP180;51487;52.266;10.542;2022-07-10T08:29:55;101190.00;;;15.20
64960;BMP180;51487;52.266;10.542;2022-07-10T08:32:21;101194.00;;;15.40
64960;BMP180;51487;52.266;10.542;2022-07-10T08:34:46;101192.00;;;15.60
64960;BMP180;51487;52.266;10.542;2022-07-10T08:37:14;101200.00;;;15.60
64960;BMP180;51487;52.266;10.542;2022-07-10T08:39:40;101177.00;;;15.40
64960;BMP180;51487;52.266;10.542;2022-07-10T08:42:06;101171.00;;;15.60
64960;BMP180;51487;52.266;10.542;2022-07-10T08:44:34;101186.00;;;15.70
64960;BMP180;51487;52.266;10.542;2022-07-10T08:47:01;101174.00;;;15.90
64960;BMP180;51487;52.266;10.542;2022-07-10T08:49:28;101164.00;;;16.10
64960;BMP180;51487;52.266;10.542;2022-07-10T08:52:08;101176.00;;;16.30
64960;BMP180;51487;52.266;10.542;2022-07-10T08:54:46;101164.00;;;16.30
64960;BMP180;51487;52.266;10.542;2022-07-10T08:57:12;101184.00;;;16.60
64960;BMP180;51487;52.266;10.542;2022-07-10T08:59:40;101167.00;;;16.50
64960;BMP180;51487;52.266;10.542;2022-07-10T09:02:06;101176.00;;;16.60
64960;BMP180;51487;52.266;10.542;2022-07-10T09:04:31;101193.00;;;16.10
64960;BMP180;51487;52.266;10.542;2022-07-10T09:06:57;101195.00;;;16.20
64960;BMP180;51487;52.266;10.542;2022-07-10T09:09:23;101196.00;;;16.20
64960;BMP180;51487;52.266;10.542;2022-07-10T09:11:55;101182.00;;;16.20
64960;BMP180;51487;52.266;10.542;2022-07-10T09:14:22;101185.00;;;16.20
64960;BMP180;51487;52.266;10.542;2022-07-10T09:16:51;101179.00;;;16.10
64960;BMP180;51487;52.266;10.542;2022-07-10T09:21:48;101199.00;;;15.80
64960;BMP180;51487;52.266;10.542;2022-07-10T09:24:18;101178.00;;;15.90
64960;BMP180;51487;52.266;10.542;2022-07-10T09:26:58;101164.00;;;16.50
64960;BMP180;51487;52.266;10.542;2022-07-10T09:29:32;101171.00;;;16.50
64960;BMP180;51487;52.266;10.542;2022-07-10T09:32:09;101167.00;;;16.50
64960;BMP180;51487;52.266;10.542;2022-07-10T09:47:39;101171.00;;;16.70
64960;BMP180;51487;52.266;10.542;2022-07-10T09:50:29;101174.00;;;16.60
64960;BMP180;51487;52.266;10.542;2022-07-10T09:53:02;101172.00;;;16.40
64960;BMP180;51487;52.266;10.542;2022-07-10T09:55:34;101171.00;;;16.50
64960;BMP180;51487;52.266;10.542;2022-07-10T09:58:08;101170.00;;;16.50
64960;BMP180;51487;52.266;10.542;2022-07-10T10:00:39;101159.00;;;16.70
64960;BMP180;51487;52.266;10.542;2022-07-10T10:03:08;101145.00;;;17.00
64960;BMP180;51487;52.266;10.542;2022-07-10T10:05:55;101138.00;;;17.10
64960;BMP180;51487;52.266;10.542;2022-07-10T10:08:32;101125.00;;;17.50
64960;BMP180;51487;52.266;10.542;2022-07-10T10:11:13;101150.00;;;17.30
64960;BMP180;51487;52.266;10.542;2022-07-10T10:13:43;101156.00;;;17.10
64960;BMP180;51487;52.266;10.542;2022-07-10T10:16:09;101160.00;;;17.00
64960;BMP180;51487;52.266;10.542;2022-07-10T10:18:36;101141.00;;;16.90
64960;BMP180;51487;52.266;10.542;2022-07-10T10:21:03;101137.00;;;17.20
64960;BMP180;51487;52.266;10.542;2022-07-10T10:23:32;101151.00;;;17.30
64960;BMP180;51487;52.266;10.542;2022-07-10T10:25:59;101149.00;;;17.50
64960;BMP180;51487;52.266;10.542;2022-07-10T10:28:26;101131.00;;;17.40
64960;BMP180;51487;52.266;10.542;2022-07-10T10:30:54;101135.00;;;17.70
64960;BMP180;51487;52.266;10.542;2022-07-10T10:35:57;101159.00;;;17.50
64960;BMP180;51487;52.266;10.542;2022-07-10T10:38:23;101142.00;;;17.60
64960;BMP180;51487;52.266;10.542;2022-07-10T10:40:48;101139.00;;;17.80
64960;BMP180;51487;52.266;10.542;2022-07-10T10:43:21;101134.00;;;17.90
64960;BMP180;51487;52.266;10.542;2022-07-10T10:45:51;101136.00;;;18.00
64960;BMP180;51487;52.266;10.542;2022-07-10T10:48:18;101150.00;;;18.00
64960;BMP180;51487;52.266;10.542;2022-07-10T10:53:21;101179.00;;;17.20
64960;BMP180;51487;52.266;10.542;2022-07-10T10:58:46;101169.00;;;17.30
64960;BMP180;51487;52.266;10.542;2022-07-10T11:06:46;101146.00;;;17.80
64960;BMP180;51487;52.266;10.542;2022-07-10T11:09:33;101155.00;;;17.80
64960;BMP180;51487;52.266;10.542;2022-07-10T11:14:39;101149.00;;;17.70
64960;BMP180;51487;52.266;10.542;2022-07-10T11:17:07;101142.00;;;17.80
64960;BMP180;51487;52.266;10.542;2022-07-10T11:19:35;101143.00;;;18.00
64960;BMP180;51487;52.266;10.542;2022-07-10T11:24:40;101146.00;;;18.40
64960;BMP180;51487;52.266;10.542;2022-07-10T11:30:07;101136.00;;;18.30
64960;BMP180;51487;52.266;10.542;2022-07-10T11:32:35;101149.00;;;18.50
64960;BMP180;51487;52.266;10.542;2022-07-10T11:35:01;101142.00;;;18.20
64960;BMP180;51487;52.266;10.542;2022-07-10T11:37:26;101132.00;;;18.50
64960;BMP180;51487;52.266;10.542;2022-07-10T11:40:11;101136.00;;;18.90
64960;BMP180;51487;52.266;10.542;2022-07-10T11:42:53;101134.00;;;18.40
64960;BMP180;51487;52.266;10.542;2022-07-10T11:45:28;101129.00;;;18.40
64960;BMP180;51487;52.266;10.542;2022-07-10T11:47:55;101144.00;;;18.30
64960;BMP180;51487;52.266;10.542;2022-07-10T11:50:22;101145.00;;;18.20
64960;BMP180;51487;52.266;10.542;2022-07-10T11:52:48;101127.00;;;18.30
64960;BMP180;51487;52.266;10.542;2022-07-10T11:55:16;101126.00;;;18.40
64960;BMP180;51487;52.266;10.542;2022-07-10T11:57:43;101149.00;;;18.50
64960;BMP180;51487;52.266;10.542;2022-07-10T12:00:27;101113.00;;;18.70
64960;BMP180;51487;52.266;10.542;2022-07-10T12:02:55;101112.00;;;19.00
64960;BMP180;51487;52.266;10.542;2022-07-10T12:08:04;101121.00;;;19.50
64960;BMP180;51487;52.266;10.542;2022-07-10T12:10:32;101144.00;;;19.00
64960;BMP180;51487;52.266;10.542;2022-07-10T12:13:03;101133.00;;;18.60
64960;BMP180;51487;52.266;10.542;2022-07-10T12:15:40;101129.00;;;18.50
64960;BMP180;51487;52.266;10.542;2022-07-10T12:18:09;101129.00;;;18.70
64960;BMP180;51487;52.266;10.542;2022-07-10T12:20:46;101138.00;;;18.60
64960;BMP180;51487;52.266;10.542;2022-07-10T12:23:16;101132.00;;;18.50
64960;BMP180;51487;52.266;10.542;2022-07-10T12:25:45;101136.00;;;18.70
64960;BMP180;51487;52.266;10.542;2022-07-10T12:28:14;101130.00;;;19.10
64960;BMP180;51487;52.266;10.542;2022-07-10T12:30:49;101135.00;;;19.00
64960;BMP180;51487;52.266;10.542;2022-07-10T12:33:18;101136.00;;;18.80
64960;BMP180;51487;52.266;10.542;2022-07-10T12:35:57;101139.00;;;18.90
64960;BMP180;51487;52.266;10.542;2022-07-10T12:38:28;101141.00;;;19.00
64960;BMP180;51487;52.266;10.542;2022-07-10T12:41:08;101156.00;;;18.90
64960;BMP180;51487;52.266;10.542;2022-07-10T12:43:39;101148.00;;;18.60
64960;BMP180;51487;52.266;10.542;2022-07-10T12:46:16;101147.00;;;18.40
64960;BMP180;51487;52.266;10.542;2022-07-10T12:49:02;101138.00;;;18.50
64960;BMP180;51487;52.266;10.542;2022-07-10T12:51:45;101129.00;;;19.10
64960;BMP180;51487;52.266;10.542;2022-07-10T12:56:57;101153.00;;;19.20
64960;BMP180;51487;52.266;10.542;2022-07-10T12:59:23;101151.00;;;19.00
64960;BMP180;51487;52.266;10.542;2022-07-10T13:01:49;101141.00;;;18.90
64960;BMP180;51487;52.266;10.542;2022-07-10T13:04:25;101152.00;;;18.90
64960;BMP180;51487;52.266;10.542;2022-07-10T13:06:52;101148.00;;;18.70
64960;BMP180;51487;52.266;10.542;2022-07-10T13:09:27;101155.00;;;18.50
64960;BMP180;51487;52.266;10.542;2022-07-10T13:11:53;101154.00;;;18.90
64960;BMP180;51487;52.266;10.542;2022-07-10T13:14:20;101167.00;;;18.80
64960;BMP180;51487;52.266;10.542;2022-07-10T13:16:46;101164.00;;;18.90
64960;BMP180;51487;52.266;10.542;2022-07-10T13:19:12;101157.00;;;19.00
64960;BMP180;51487;52.266;10.542;2022-07-10T13:21:38;101154.00;;;19.00
64960;BMP180;51487;52.266;10.542;2022-07-10T13:24:04;101162.00;;;19.10
64960;BMP180;51487;52.266;10.542;2022-07-10T13:26:31;101163.00;;;18.60
64960;BMP180;51487;52.266;10.542;2022-07-10T13:28:57;101174.00;;;18.30
64960;BMP180;51487;52.266;10.542;2022-07-10T13:31:24;101166.00;;;18.30
64960;BMP180;51487;52.266;10.542;2022-07-10T13:33:50;101171.00;;;18.20
64960;BMP180;51487;52.266;10.542;2022-07-10T13:36:15;101163.00;;;18.40
64960;BMP180;51487;52.266;10.542;2022-07-10T13:38:41;101170.00;;;18.40
64960;BMP180;51487;52.266;10.542;2022-07-10T13:41:07;101163.00;;;18.80
64960;BMP180;51487;52.266;10.542;2022-07-10T13:43:33;101167.00;;;18.60
64960;BMP180;51487;52.266;10.542;2022-07-10T13:46:00;101162.00;;;18.60
64960;BMP180;51487;52.266;10.542;2022-07-10T13:48:28;101156.00;;;18.70
64960;BMP180;51487;52.266;10.542;2022-07-10T13:50:54;101161.00;;;19.00
64960;BMP180;51487;52.266;10.542;2022-07-10T13:53:20;101169.00;;;18.90
64960;BMP180;51487;52.266;10.542;2022-07-10T13:55:47;101143.00;;;19.10
64960;BMP180;51487;52.266;10.542;2022-07-10T13:58:13;101148.00;;;18.90
64960;BMP180;51487;52.266;10.542;2022-07-10T14:00:39;101164.00;;;18.80
64960;BMP180;51487;52.266;10.542;2022-07-10T14:03:05;101166.00;;;18.80
64960;BMP180;51487;52.266;10.542;2022-07-10T14:05:33;101158.00;;;18.60
64960;BMP180;51487;52.266;10.542;2022-07-10T14:07:59;101161.00;;;18.40
64960;BMP180;51487;52.266;10.542;2022-07-10T14:10:26;101162.00;;;18.50
64960;BMP180;51487;52.266;10.542;2022-07-10T14:12:53;101179.00;;;18.20
64960;BMP180;51487;52.266;10.542;2022-07-10T14:15:19;101167.00;;;18.20
64960;BMP180;51487;52.266;10.542;2022-07-10T14:17:45;101171.00;;;17.90
64960;BMP180;51487;52.266;10.542;2022-07-10T14:20:11;101182.00;;;18.00
64960;BMP180;51487;52.266;10.542;2022-07-10T14:22:37;101200.00;;;18.10
64960;BMP180;51487;52.266;10.542;2022-07-10T14:25:07;101178.00;;;18.20
64960;BMP180;51487;52.266;10.542;2022-07-10T14:27:35;101175.00;;;18.10
64960;BMP180;51487;52.266;10.542;2022-07-10T14:30:01;101170.00;;;18.00